sensor_id;sensor_type;location;lat;lon;timestamp;temperature;humidity
32334;DHT22;18810;53.040;8.850;2023-08-01T00:07:50;17.00;99.90
32334;DHT22;18810;53.040;8.850;2023-08-01T00:10:15;17.10;99.90
32334;DHT22;18810;53.040;8.850;2023-08-01T00:12:42;17.20;99.90
32334;DHT22;18810;53.040;8.850;2023-08-01T00:15:08;17.10;99.90
32334;DHT22;18810;53.040;8.850;2023-08-01T00:17:34;16.90;99.90
32334;DHT22;18810;53.040;8.850;2023-08-01T00:20:03;17.00;99.90
32334;DHT22;18810;53.040;8.850;2023-08-01T00:24:56;17.00;99.90
32334;DHT22;18810;53.040;8.850;2023-08-01T00:27:21;17.00;99.90
32334;DHT22;18810;53.040;8.850;2023-08-01T00:29:47;17.00;99.90
32334;DHT22;18810;53.040;8.850;2023-08-01T00:32:12;17.00;99.90
32334;DHT22;18810;53.040;8.850;2023-08-01T00:34:38;17.00;99.90
32334;DHT22;18810;53.040;8.850;2023-08-01T00:37:04;17.00;99.90
32334;DHT22;18810;53.040;8.850;2023-08-01T00:39:30;17.00;99.90
32334;DHT22;18810;53.040;8.850;2023-08-01T00:44:22;17.00;99.90
32334;DHT22;18810;53.040;8.850;2023-08-01T01:03:50;16.80;99.90
32334;DHT22;18810;53.040;8.850;2023-08-01T01:06:31;16.90;99.90
32334;DHT22;18810;53.040;8.850;2023-08-01T01:08:57;16.90;99.90
32334;DHT22;18810;53.040;8.850;2023-08-01T01:13:49;16.80;99.90
32334;DHT22;18810;53.040;8.850;2023-08-01T01:18:45;16.80;99.90
32334;DHT22;18810;53.040;8.850;2023-08-01T01:21:10;16.70;99.90
32334;DHT22;18810;53.040;8.850;2023-08-01T01:23:36;16.70;99.90
32334;DHT22;18810;53.040;8.850;2023-08-01T01:26:03;16.80;99.90
32334;DHT22;18810;53.040;8.850;2023-08-01T01:28:30;16.70;99.90
32334;DHT22;18810;53.040;8.850;2023-08-01T01:30:56;16.70;99.90
32334;DHT22;18810;53.040;8.850;2023-08-01T01:35:49;16.70;99.90
32334;DHT22;18810;53.040;8.850;2023-08-01T01:38:15;16.70;99.90
32334;DHT22;18810;53.040;8.850;2023-08-01T01:43:07;16.80;99.90
32334;DHT22;18810;53.040;8.850;2023-08-01T01:45:33;16.80;99.90
32334;DHT22;18810;53.040;8.850;2023-08-01T01:47:58;16.80;99.90
32334;DHT22;18810;53.040;8.850;2023-08-01T01:50:24;16.80;99.90
32334;DHT22;18810;53.040;8.850;2023-08-01T01:52:49;16.60;99.90
32334;DHT22;18810;53.040;8.850;2023-08-01T01:57:41;16.80;99.90
32334;DHT22;18810;53.040;8.850;2023-08-01T02:00:07;16.80;99.90
32334;DHT22;18810;53.040;8.850;2023-08-01T02:07:31;16.80;99.90
32334;DHT22;18810;53.040;8.850;2023-08-01T02:12:23;16.80;99.90
32334;DHT22;18810;53.040;8.850;2023-08-01T02:14:48;16.80;99.90
32334;DHT22;18810;53.040;8.850;2023-08-01T02:19:40;16.70;99.90
32334;DHT22;18810;53.040;8.850;2023-08-01T02:22:06;16.70;99.90
32334;DHT22;18810;53.040;8.850;2023-08-01T02:24:31;16.70;99.90
32334;DHT22;18810;53.040;8.850;2023-08-01T02:26:57;16.70;99.90
32334;DHT22;18810;53.040;8.850;2023-08-01T02:34:15;16.70;99.90
32334;DHT22;18810;53.040;8.850;2023-08-01T02:36:40;16.70;99.90
32334;DHT22;18810;53.040;8.850;2023-08-01T02:39:06;16.70;99.90
32334;DHT22;18810;53.040;8.850;2023-08-01T02:41:32;16.70;99.90
32334;DHT22;18810;53.040;8.850;2023-08-01T02:43:58;16.90;99.90
32334;DHT22;18810;53.040;8.850;2023-08-01T02:46:23;16.60;99.90
32334;DHT22;18810;53.040;8.850;2023-08-01T02:51:15;16.70;99.90
32334;DHT22;18810;53.040;8.850;2023-08-01T02:56:08;16.60;99.90
32334;DHT22;18810;53.040;8.850;2023-08-01T03:01:05;16.70;99.90
32334;DHT22;18810;53.040;8.850;2023-08-01T03:03:32;16.70;99.90
32334;DHT22;18810;53.040;8.850;2023-08-01T03:05:57;16.70;99.90
32334;DHT22;18810;53.040;8.850;2023-08-01T03:10:50;16.80;99.90
32334;DHT22;18810;53.040;8.850;2023-08-01T03:15:42;16.70;99.90
32334;DHT22;18810;53.040;8.850;2023-08-01T03:18:07;16.50;99.90
32334;DHT22;18810;53.040;8.850;2023-08-01T03:20:33;16.60;99.90
32334;DHT22;18810;53.040;8.850;2023-08-01T03:22:59;16.60;99.90
32334;DHT22;18810;53.040;8.850;2023-08-01T03:30:17;16.60;99.90
32334;DHT22;18810;53.040;8.850;2023-08-01T03:40:00;16.60;99.90
32334;DHT22;18810;53.040;8.850;2023-08-01T03:44:52;16.60;99.90
32334;DHT22;18810;53.040;8.850;2023-08-01T03:47:17;16.50;99.90
32334;DHT22;18810;53.040;8.850;2023-08-01T03:49:43;16.50;99.90
32334;DHT22;18810;53.040;8.850;2023-08-01T03:52:09;16.50;99.90
32334;DHT22;18810;53.040;8.850;2023-08-01T03:54:35;16.60;99.90
32334;DHT22;18810;53.040;8.850;2023-08-01T03:57:00;16.50;99.90
32334;DHT22;18810;53.040;8.850;2023-08-01T03:59:27;16.60;99.90
32334;DHT22;18810;53.040;8.850;2023-08-01T04:01:53;16.60;99.90
32334;DHT22;18810;53.040;8.850;2023-08-01T04:04:19;16.60;99.90
32334;DHT22;18810;53.040;8.850;2023-08-01T04:06:45;16.60;99.90
32334;DHT22;18810;53.040;8.850;2023-08-01T04:09:11;16.50;99.90
32334;DHT22;18810;53.040;8.850;2023-08-01T04:11:36;16.60;99.90
32334;DHT22;18810;53.040;8.850;2023-08-01T04:14:02;16.60;99.90
32334;DHT22;18810;53.040;8.850;2023-08-01T04:16:28;16.50;99.90
32334;DHT22;18810;53.040;8.850;2023-08-01T04:18:53;16.40;99.90
32334;DHT22;18810;53.040;8.850;2023-08-01T04:21:19;16.40;99.90
32334;DHT22;18810;53.040;8.850;2023-08-01T04:23:44;16.50;99.90
32334;DHT22;18810;53.040;8.850;2023-08-01T04:26:10;16.50;99.90
32334;DHT22;18810;53.040;8.850;2023-08-01T04:28:36;16.50;99.90
32334;DHT22;18810;53.040;8.850;2023-08-01T04:31:01;16.50;99.90
32334;DHT22;18810;53.040;8.850;2023-08-01T04:33:27;16.50;99.90
32334;DHT22;18810;53.040;8.850;2023-08-01T04:35:53;16.40;99.90
32334;DHT22;18810;53.040;8.850;2023-08-01T04:38:18;16.50;99.90
32334;DHT22;18810;53.040;8.850;2023-08-01T04:40:44;16.60;99.90
32334;DHT22;18810;53.040;8.850;2023-08-01T04:43:13;16.50;99.90
32334;DHT22;18810;53.040;8.850;2023-08-01T04:45:38;16.50;99.90
32334;DHT22;18810;53.040;8.850;2023-08-01T04:48:04;16.60;99.90
32334;DHT22;18810;53.040;8.850;2023-08-01T04:50:30;16.60;99.90
32334;DHT22;18810;53.040;8.850;2023-08-01T04:52:55;16.60;99.90
32334;DHT22;18810;53.040;8.850;2023-08-01T04:55:21;16.70;99.90
32334;DHT22;18810;53.040;8.850;2023-08-01T04:57:47;16.60;99.90
32334;DHT22;18810;53.040;8.850;2023-08-01T05:00:13;16.50;99.90
32334;DHT22;18810;53.040;8.850;2023-08-01T05:02:39;16.50;99.90
32334;DHT22;18810;53.040;8.850;2023-08-01T05:05:05;16.30;99.90
32334;DHT22;18810;53.040;8.850;2023-08-01T05:07:30;16.20;99.90
32334;DHT22;18810;53.040;8.850;2023-08-01T05:09:56;16.00;99.90
32334;DHT22;18810;53.040;8.850;2023-08-01T05:12:22;15.90;99.90
32334;DHT22;18810;53.040;8.850;2023-08-01T05:17:16;15.70;99.90
32334;DHT22;18810;53.040;8.850;2023-08-01T05:19:42;15.80;99.90
32334;DHT22;18810;53.040;8.850;2023-08-01T05:22:07;15.70;99.90
32334;DHT22;18810;53.040;8.850;2023-08-01T05:24:33;16.00;99.90
32334;DHT22;18810;53.040;8.850;2023-08-01T05:26:59;15.80;99.90
32334;DHT22;18810;53.040;8.850;2023-08-01T05:29:24;15.90;99.90
32334;DHT22;18810;53.040;8.850;2023-08-01T05:31:50;15.90;99.90
32334;DHT22;18810;53.040;8.850;2023-08-01T05:34:16;16.00;99.90
32334;DHT22;18810;53.040;8.850;2023-08-01T05:36:41;15.90;99.90
32334;DHT22;18810;53.040;8.850;2023-08-01T05:39:07;16.00;99.90
32334;DHT22;18810;53.040;8.850;2023-08-01T05:41:32;16.00;99.90
32334;DHT22;18810;53.040;8.850;2023-08-01T05:43:58;16.20;99.90
32334;DHT22;18810;53.040;8.850;2023-08-01T05:46:24;16.30;99.90
32334;DHT22;18810;53.040;8.850;2023-08-01T05:48:50;16.30;99.90
32334;DHT22;18810;53.040;8.850;2023-08-01T05:51:15;16.20;99.90
32334;DHT22;18810;53.040;8.850;2023-08-01T05:53:41;16.20;99.90
32334;DHT22;18810;53.040;8.850;2023-08-01T05:56:06;16.20;99.90
32334;DHT22;18810;53.040;8.850;2023-08-01T05:58:32;16.20;99.90
32334;DHT22;18810;53.040;8.850;2023-08-01T06:00:58;16.30;99.90
32334;DHT22;18810;53.040;8.850;2023-08-01T06:03:23;16.30;99.90
32334;DHT22;18810;53.040;8.850;2023-08-01T06:05:49;16.50;99.90
32334;DHT22;18810;53.040;8.850;2023-08-01T06:08:15;16.60;99.90
32334;DHT22;18810;53.040;8.850;2023-08-01T06:10:44;16.80;99.90
32334;DHT22;18810;53.040;8.850;2023-08-01T06:13:09;16.90;99.90
32334;DHT22;18810;53.040;8.850;2023-08-01T06:15:35;16.90;99.90
32334;DHT22;18810;53.040;8.850;2023-08-01T06:18:01;17.10;99.90
32334;DHT22;18810;53.040;8.850;2023-08-01T06:20:28;17.10;99.90
32334;DHT22;18810;53.040;8.850;2023-08-01T06:22:53;17.10;99.90
32334;DHT22;18810;53.040;8.850;2023-08-01T06:25:19;17.10;99.90
32334;DHT22;18810;53.040;8.850;2023-08-01T06:27:45;17.10;99.90
32334;DHT22;18810;53.040;8.850;2023-08-01T06:30:11;16.90;99.90
32334;DHT22;18810;53.040;8.850;2023-08-01T06:32:36;16.90;99.90
32334;DHT22;18810;53.040;8.850;2023-08-01T06:35:02;16.80;99.90
32334;DHT22;18810;53.040;8.850;2023-08-01T06:37:28;16.90;99.90
32334;DHT22;18810;53.040;8.850;2023-08-01T06:39:55;17.00;99.90
32334;DHT22;18810;53.040;8.850;2023-08-01T06:44:46;17.30;99.90
32334;DHT22;18810;53.040;8.850;2023-08-01T06:47:12;17.30;99.90
32334;DHT22;18810;53.040;8.850;2023-08-01T06:49:38;17.50;99.90
32334;DHT22;18810;53.040;8.850;2023-08-01T06:52:04;17.40;99.90
32334;DHT22;18810;53.040;8.850;2023-08-01T06:54:30;17.40;99.90
32334;DHT22;18810;53.040;8.850;2023-08-01T06:56:57;17.60;99.90
32334;DHT22;18810;53.040;8.850;2023-08-01T06:59:24;17.60;99.90
32334;DHT22;18810;53.040;8.850;2023-08-01T07:01:50;17.50;99.90
32334;DHT22;18810;53.040;8.850;2023-08-01T07:04:15;17.50;99.90
32334;DHT22;18810;53.040;8.850;2023-08-01T07:06:41;17.40;99.90
32334;DHT22;18810;53.040;8.850;2023-08-01T07:09:06;17.60;99.90
32334;DHT22;18810;53.040;8.850;2023-08-01T07:11:32;17.70;99.90
32334;DHT22;18810;53.040;8.850;2023-08-01T07:13:58;17.80;99.90
32334;DHT22;18810;53.040;8.850;2023-08-01T07:16:24;18.00;99.90
32334;DHT22;18810;53.040;8.850;2023-08-01T07:18:50;18.20;99.90
32334;DHT22;18810;53.040;8.850;2023-08-01T07:21:17;17.90;99.90
32334;DHT22;18810;53.040;8.850;2023-08-01T07:23:42;17.80;99.90
32334;DHT22;18810;53.040;8.850;2023-08-01T07:26:08;17.80;99.90
32334;DHT22;18810;53.040;8.850;2023-08-01T07:28:34;17.90;99.90
32334;DHT22;18810;53.040;8.850;2023-08-01T07:31:00;17.90;99.90
32334;DHT22;18810;53.040;8.850;2023-08-01T07:33:26;18.10;99.90
32334;DHT22;18810;53.040;8.850;2023-08-01T07:35:52;18.00;99.90
32334;DHT22;18810;53.040;8.850;2023-08-01T07:38:17;17.70;99.90
32334;DHT22;18810;53.040;8.850;2023-08-01T07:40:43;17.50;99.90
32334;DHT22;18810;53.040;8.850;2023-08-01T07:43:09;17.40;99.90
32334;DHT22;18810;53.040;8.850;2023-08-01T07:45:34;17.60;99.90
32334;DHT22;18810;53.040;8.850;2023-08-01T07:50:26;17.80;99.90
32334;DHT22;18810;53.040;8.850;2023-08-01T07:52:52;17.90;99.90
32334;DHT22;18810;53.040;8.850;2023-08-01T07:55:18;17.90;99.90
32334;DHT22;18810;53.040;8.850;2023-08-01T07:57:47;17.80;99.90
32334;DHT22;18810;53.040;8.850;2023-08-01T08:00:13;17.70;99.90
32334;DHT22;18810;53.040;8.850;2023-08-01T08:02:41;18.00;99.90
32334;DHT22;18810;53.040;8.850;2023-08-01T08:05:07;19.10;99.90
32334;DHT22;18810;53.040;8.850;2023-08-01T08:07:33;19.40;99.90
32334;DHT22;18810;53.040;8.850;2023-08-01T08:09:58;20.30;99.90
32334;DHT22;18810;53.040;8.850;2023-08-01T08:12:24;21.10;99.90
32334;DHT22;18810;53.040;8.850;2023-08-01T08:14:50;21.80;99.90
32334;DHT22;18810;53.040;8.850;2023-08-01T08:17:15;21.90;99.90
32334;DHT22;18810;53.040;8.850;2023-08-01T08:19:41;21.30;99.90
32334;DHT22;18810;53.040;8.850;2023-08-01T08:22:07;20.80;99.90
32334;DHT22;18810;53.040;8.850;2023-08-01T08:24:33;20.10;99.90
32334;DHT22;18810;53.040;8.850;2023-08-01T08:26:58;20.00;99.90
32334;DHT22;18810;53.040;8.850;2023-08-01T08:29:24;18.90;99.90
32334;DHT22;18810;53.040;8.850;2023-08-01T08:31:50;19.70;99.90
32334;DHT22;18810;53.040;8.850;2023-08-01T08:34:15;19.40;99.90
32334;DHT22;18810;53.040;8.850;2023-08-01T08:36:43;19.30;99.90
32334;DHT22;18810;53.040;8.850;2023-08-01T08:39:09;19.40;99.90
32334;DHT22;18810;53.040;8.850;2023-08-01T08:41:41;19.40;99.90
32334;DHT22;18810;53.040;8.850;2023-08-01T08:44:11;19.60;99.90
32334;DHT22;18810;53.040;8.850;2023-08-01T08:46:41;20.10;99.90
32334;DHT22;18810;53.040;8.850;2023-08-01T08:49:09;20.40;99.90
32334;DHT22;18810;53.040;8.850;2023-08-01T08:51:36;20.70;99.90
32334;DHT22;18810;53.040;8.850;2023-08-01T08:54:05;21.10;99.90
32334;DHT22;18810;53.040;8.850;2023-08-01T08:56:31;22.10;99.90
32334;DHT22;18810;53.040;8.850;2023-08-01T08:58:59;22.80;99.90
32334;DHT22;18810;53.040;8.850;2023-08-01T09:01:25;23.10;99.90
32334;DHT22;18810;53.040;8.850;2023-08-01T09:03:51;22.90;99.90
32334;DHT22;18810;53.040;8.850;2023-08-01T09:06:24;22.90;99.90
32334;DHT22;18810;53.040;8.850;2023-08-01T09:08:54;22.50;99.90
32334;DHT22;18810;53.040;8.850;2023-08-01T09:11:20;22.10;99.90
32334;DHT22;18810;53.040;8.850;2023-08-01T09:13:47;21.70;99.90
32334;DHT22;18810;53.040;8.850;2023-08-01T09:16:14;22.10;99.90
32334;DHT22;18810;53.040;8.850;2023-08-01T09:18:50;22.90;99.90
32334;DHT22;18810;53.040;8.850;2023-08-01T09:21:23;23.00;99.90
32334;DHT22;18810;53.040;8.850;2023-08-01T09:23:48;23.30;99.90
32334;DHT22;18810;53.040;8.850;2023-08-01T09:26:19;23.50;99.90
32334;DHT22;18810;53.040;8.850;2023-08-01T09:29:05;24.10;99.90
32334;DHT22;18810;53.040;8.850;2023-08-01T09:31:39;24.80;99.90
32334;DHT22;18810;53.040;8.850;2023-08-01T09:34:06;24.90;99.90
32334;DHT22;18810;53.040;8.850;2023-08-01T09:36:33;24.60;99.90
32334;DHT22;18810;53.040;8.850;2023-08-01T09:39:02;24.20;99.90
32334;DHT22;18810;53.040;8.850;2023-08-01T09:41:30;24.10;99.90
32334;DHT22;18810;53.040;8.850;2023-08-01T09:43:56;23.80;99.90
32334;DHT22;18810;53.040;8.850;2023-08-01T09:46:22;23.30;99.90
32334;DHT22;18810;53.040;8.850;2023-08-01T09:48:48;22.90;99.90
32334;DHT22;18810;53.040;8.850;2023-08-01T09:51:15;23.10;99.90
32334;DHT22;18810;53.040;8.850;2023-08-01T09:53:50;22.80;99.90
32334;DHT22;18810;53.040;8.850;2023-08-01T09:56:22;22.50;99.90
32334;DHT22;18810;53.040;8.850;2023-08-01T09:58:50;22.30;99.90
32334;DHT22;18810;53.040;8.850;2023-08-01T10:01:17;22.60;99.90
32334;DHT22;18810;53.040;8.850;2023-08-01T10:03:52;22.50;99.90
32334;DHT22;18810;53.040;8.850;2023-08-01T10:06:31;22.90;99.90
32334;DHT22;18810;53.040;8.850;2023-08-01T10:08:58;23.70;99.90
32334;DHT22;18810;53.040;8.850;2023-08-01T10:11:26;23.60;99.90
32334;DHT22;18810;53.040;8.850;2023-08-01T10:13:52;23.20;99.90
32334;DHT22;18810;53.040;8.850;2023-08-01T10:16:17;22.40;99.90
32334;DHT22;18810;53.040;8.850;2023-08-01T10:18:44;22.10;99.90
32334;DHT22;18810;53.040;8.850;2023-08-01T10:21:15;22.50;99.90
32334;DHT22;18810;53.040;8.850;2023-08-01T10:23:42;22.90;99.90
32334;DHT22;18810;53.040;8.850;2023-08-01T10:26:10;23.70;99.90
32334;DHT22;18810;53.040;8.850;2023-08-01T10:28:38;24.20;99.90
32334;DHT22;18810;53.040;8.850;2023-08-01T10:31:12;24.20;99.90
32334;DHT22;18810;53.040;8.850;2023-08-01T10:33:41;24.70;99.90
32334;DHT22;18810;53.040;8.850;2023-08-01T10:39:01;24.80;99.90
32334;DHT22;18810;53.040;8.850;2023-08-01T10:41:34;24.30;99.90
32334;DHT22;18810;53.040;8.850;2023-08-01T10:44:11;24.20;99.90
32334;DHT22;18810;53.040;8.850;2023-08-01T10:46:56;23.60;99.90
32334;DHT22;18810;53.040;8.850;2023-08-01T10:52:00;23.20;99.90
32334;DHT22;18810;53.040;8.850;2023-08-01T10:54:26;23.50;99.90
32334;DHT22;18810;53.040;8.850;2023-08-01T10:56:54;23.30;99.90
32334;DHT22;18810;53.040;8.850;2023-08-01T10:59:21;23.00;99.90
32334;DHT22;18810;53.040;8.850;2023-08-01T11:01:53;22.90;99.90
32334;DHT22;18810;53.040;8.850;2023-08-01T11:04:20;22.90;99.90
32334;DHT22;18810;53.040;8.850;2023-08-01T11:06:48;23.30;99.90
32334;DHT22;18810;53.040;8.850;2023-08-01T11:11:54;24.60;99.90
32334;DHT22;18810;53.040;8.850;2023-08-01T11:14:21;25.00;99.90
32334;DHT22;18810;53.040;8.850;2023-08-01T11:16:48;25.20;99.90
32334;DHT22;18810;53.040;8.850;2023-08-01T11:19:18;24.30;99.90
32334;DHT22;18810;53.040;8.850;2023-08-01T11:21:45;23.30;99.90
32334;DHT22;18810;53.040;8.850;2023-08-01T11:24:11;22.90;99.90
32334;DHT22;18810;53.040;8.850;2023-08-01T11:26:43;23.40;99.90
32334;DHT22;18810;53.040;8.850;2023-08-01T11:29:10;24.30;99.90
32334;DHT22;18810;53.040;8.850;2023-08-01T11:31:36;24.90;99.90
32334;DHT22;18810;53.040;8.850;2023-08-01T11:34:02;25.70;99.90
32334;DHT22;18810;53.040;8.850;2023-08-01T11:36:29;25.00;99.90
32334;DHT22;18810;53.040;8.850;2023-08-01T11:38:59;24.10;99.90
32334;DHT22;18810;53.040;8.850;2023-08-01T11:41:26;23.40;99.90
32334;DHT22;18810;53.040;8.850;2023-08-01T11:43:53;23.20;99.90
32334;DHT22;18810;53.040;8.850;2023-08-01T11:46:21;22.90;99.90
32334;DHT22;18810;53.040;8.850;2023-08-01T11:48:47;22.80;99.90
32334;DHT22;18810;53.040;8.850;2023-08-01T11:51:15;23.10;99.90
32334;DHT22;18810;53.040;8.850;2023-08-01T11:53:41;23.90;99.90
32334;DHT22;18810;53.040;8.850;2023-08-01T11:56:07;24.10;99.90
32334;DHT22;18810;53.040;8.850;2023-08-01T11:58:34;24.70;99.90
32334;DHT22;18810;53.040;8.850;2023-08-01T12:01:10;25.40;99.90
32334;DHT22;18810;53.040;8.850;2023-08-01T12:03:53;25.70;99.90
32334;DHT22;18810;53.040;8.850;2023-08-01T12:06:20;26.00;99.90
32334;DHT22;18810;53.040;8.850;2023-08-01T12:08:48;26.10;99.90
32334;DHT22;18810;53.040;8.850;2023-08-01T12:11:32;25.50;99.90
32334;DHT22;18810;53.040;8.850;2023-08-01T12:14:11;24.90;99.90
32334;DHT22;18810;53.040;8.850;2023-08-01T12:16:38;23.90;99.90
32334;DHT22;18810;53.040;8.850;2023-08-01T12:19:04;23.80;99.90
32334;DHT22;18810;53.040;8.850;2023-08-01T12:21:32;24.20;99.90
32334;DHT22;18810;53.040;8.850;2023-08-01T12:23:58;24.90;99.90
32334;DHT22;18810;53.040;8.850;2023-08-01T12:26:23;24.80;99.90
32334;DHT22;18810;53.040;8.850;2023-08-01T12:28:50;25.00;99.90
32334;DHT22;18810;53.040;8.850;2023-08-01T12:31:17;24.80;99.90
32334;DHT22;18810;53.040;8.850;2023-08-01T12:33:44;24.70;99.90
32334;DHT22;18810;53.040;8.850;2023-08-01T12:36:09;24.30;99.90
32334;DHT22;18810;53.040;8.850;2023-08-01T12:38:35;24.00;99.90
32334;DHT22;18810;53.040;8.850;2023-08-01T12:41:01;24.10;99.90
32334;DHT22;18810;53.040;8.850;2023-08-01T12:43:27;24.20;99.90
32334;DHT22;18810;53.040;8.850;2023-08-01T12:45:53;23.20;99.90
32334;DHT22;18810;53.040;8.850;2023-08-01T12:48:19;21.70;99.90
32334;DHT22;18810;53.040;8.850;2023-08-01T12:50:45;20.60;99.90
32334;DHT22;18810;53.040;8.850;2023-08-01T12:53:12;20.20;99.90
32334;DHT22;18810;53.040;8.850;2023-08-01T12:55:37;20.30;99.90
32334;DHT22;18810;53.040;8.850;2023-08-01T12:58:03;20.70;99.90
32334;DHT22;18810;53.040;8.850;2023-08-01T13:00:29;21.60;99.90
32334;DHT22;18810;53.040;8.850;2023-08-01T13:02:56;22.50;99.90
32334;DHT22;18810;53.040;8.850;2023-08-01T13:05:21;23.50;99.90
32334;DHT22;18810;53.040;8.850;2023-08-01T13:07:47;24.10;99.90
32334;DHT22;18810;53.040;8.850;2023-08-01T13:10:12;24.30;99.90
32334;DHT22;18810;53.040;8.850;2023-08-01T13:12:38;23.90;99.90
32334;DHT22;18810;53.040;8.850;2023-08-01T13:15:04;23.10;99.90
32334;DHT22;18810;53.040;8.850;2023-08-01T13:17:30;22.00;99.90
32334;DHT22;18810;53.040;8.850;2023-08-01T13:19:56;20.40;99.90
32334;DHT22;18810;53.040;8.850;2023-08-01T13:22:21;19.40;99.90
32334;DHT22;18810;53.040;8.850;2023-08-01T13:24:47;18.90;99.90
32334;DHT22;18810;53.040;8.850;2023-08-01T13:27:13;18.80;99.90
32334;DHT22;18810;53.040;8.850;2023-08-01T13:29:39;18.80;99.90
32334;DHT22;18810;53.040;8.850;2023-08-01T13:32:06;19.00;99.90
32334;DHT22;18810;53.040;8.850;2023-08-01T13:34:32;19.40;99.90
32334;DHT22;18810;53.040;8.850;2023-08-01T13:36:58;20.30;99.90
32334;DHT22;18810;53.040;8.850;2023-08-01T13:39:23;21.30;99.90
32334;DHT22;18810;53.040;8.850;2023-08-01T13:41:49;22.30;99.90
32334;DHT22;18810;53.040;8.850;2023-08-01T13:44:15;23.10;99.90
32334;DHT22;18810;53.040;8.850;2023-08-01T13:46:40;23.80;99.90
32334;DHT22;18810;53.040;8.850;2023-08-01T13:49:06;23.80;99.90
32334;DHT22;18810;53.040;8.850;2023-08-01T13:51:34;23.70;99.90
32334;DHT22;18810;53.040;8.850;2023-08-01T13:54:00;24.10;99.90
32334;DHT22;18810;53.040;8.850;2023-08-01T13:56:26;24.20;99.90
32334;DHT22;18810;53.040;8.850;2023-08-01T13:58:52;23.90;99.90
32334;DHT22;18810;53.040;8.850;2023-08-01T14:01:18;23.80;99.90
32334;DHT22;18810;53.040;8.850;2023-08-01T14:03:45;23.60;99.90
32334;DHT22;18810;53.040;8.850;2023-08-01T14:06:12;23.30;99.90
32334;DHT22;18810;53.040;8.850;2023-08-01T14:08:39;22.30;99.90
32334;DHT22;18810;53.040;8.850;2023-08-01T14:11:06;23.80;99.90
32334;DHT22;18810;53.040;8.850;2023-08-01T14:13:33;24.10;99.90
32334;DHT22;18810;53.040;8.850;2023-08-01T14:15:59;23.80;99.90
32334;DHT22;18810;53.040;8.850;2023-08-01T14:18:25;24.30;99.90
32334;DHT22;18810;53.040;8.850;2023-08-01T14:20:51;24.30;99.90
32334;DHT22;18810;53.040;8.850;2023-08-01T14:23:18;24.40;99.90
32334;DHT22;18810;53.040;8.850;2023-08-01T14:25:44;24.20;99.90
32334;DHT22;18810;53.040;8.850;2023-08-01T14:28:09;24.40;99.90
32334;DHT22;18810;53.040;8.850;2023-08-01T14:30:37;24.50;99.90
32334;DHT22;18810;53.040;8.850;2023-08-01T14:33:05;23.90;99.90
32334;DHT22;18810;53.040;8.850;2023-08-01T14:35:32;23.40;99.90
32334;DHT22;18810;53.040;8.850;2023-08-01T14:37:59;22.80;99.90
32334;DHT22;18810;53.040;8.850;2023-08-01T14:40:25;22.30;99.90
32334;DHT22;18810;53.040;8.850;2023-08-01T14:42:50;21.70;99.90
32334;DHT22;18810;53.040;8.850;2023-08-01T14:45:17;21.40;99.90
32334;DHT22;18810;53.040;8.850;2023-08-01T14:47:43;21.30;99.90
32334;DHT22;18810;53.040;8.850;2023-08-01T14:50:13;21.30;99.90
32334;DHT22;18810;53.040;8.850;2023-08-01T14:52:39;21.40;99.90
32334;DHT22;18810;53.040;8.850;2023-08-01T14:55:05;21.90;99.90
32334;DHT22;18810;53.040;8.850;2023-08-01T14:57:31;22.40;99.90
32334;DHT22;18810;53.040;8.850;2023-08-01T14:59:57;23.50;99.90
32334;DHT22;18810;53.040;8.850;2023-08-01T15:02:23;24.30;99.90
32334;DHT22;18810;53.040;8.850;2023-08-01T15:04:53;24.40;99.90
32334;DHT22;18810;53.040;8.850;2023-08-01T15:07:20;23.80;99.90
32334;DHT22;18810;53.040;8.850;2023-08-01T15:09:46;23.40;99.90
32334;DHT22;18810;53.040;8.850;2023-08-01T15:12:12;22.80;99.90
32334;DHT22;18810;53.040;8.850;2023-08-01T15:14:38;21.80;99.90
32334;DHT22;18810;53.040;8.850;2023-08-01T15:17:04;21.50;99.90
32334;DHT22;18810;53.040;8.850;2023-08-01T15:19:33;21.50;99.90
32334;DHT22;18810;53.040;8.850;2023-08-01T15:21:58;21.40;99.90
32334;DHT22;18810;53.040;8.850;2023-08-01T15:24:25;21.10;99.90
32334;DHT22;18810;53.040;8.850;2023-08-01T15:26:50;20.20;99.90
32334;DHT22;18810;53.040;8.850;2023-08-01T15:29:16;19.50;99.90
32334;DHT22;18810;53.040;8.850;2023-08-01T15:31:41;19.40;99.90
32334;DHT22;18810;53.040;8.850;2023-08-01T15:34:07;19.50;99.90
32334;DHT22;18810;53.040;8.850;2023-08-01T15:36:35;20.00;99.90
32334;DHT22;18810;53.040;8.850;2023-08-01T15:39:01;20.90;99.90
32334;DHT22;18810;53.040;8.850;2023-08-01T15:41:27;22.90;99.90
32334;DHT22;18810;53.040;8.850;2023-08-01T15:43:53;22.10;99.90
32334;DHT22;18810;53.040;8.850;2023-08-01T15:46:19;21.90;99.90
32334;DHT22;18810;53.040;8.850;2023-08-01T15:48:44;21.70;99.90
32334;DHT22;18810;53.040;8.850;2023-08-01T15:51:10;21.40;99.90
32334;DHT22;18810;53.040;8.850;2023-08-01T15:53:36;21.20;99.90
32334;DHT22;18810;53.040;8.850;2023-08-01T15:56:05;21.00;99.90
32334;DHT22;18810;53.040;8.850;2023-08-01T15:58:31;21.20;99.90
32334;DHT22;18810;53.040;8.850;2023-08-01T16:01:00;20.90;99.90
32334;DHT22;18810;53.040;8.850;2023-08-01T16:03:27;22.70;99.90
32334;DHT22;18810;53.040;8.850;2023-08-01T16:05:53;23.70;99.90
32334;DHT22;18810;53.040;8.850;2023-08-01T16:08:20;24.50;99.90
32334;DHT22;18810;53.040;8.850;2023-08-01T16:10:46;25.00;99.90
32334;DHT22;18810;53.040;8.850;2023-08-01T16:13:12;25.20;99.90
32334;DHT22;18810;53.040;8.850;2023-08-01T16:15:39;25.40;99.90
32334;DHT22;18810;53.040;8.850;2023-08-01T16:18:05;25.40;99.90
32334;DHT22;18810;53.040;8.850;2023-08-01T16:20:32;24.60;99.90
32334;DHT22;18810;53.040;8.850;2023-08-01T16:22:58;23.60;99.90
32334;DHT22;18810;53.040;8.850;2023-08-01T16:25:25;22.80;99.90
32334;DHT22;18810;53.040;8.850;2023-08-01T16:27:51;22.20;99.90
32334;DHT22;18810;53.040;8.850;2023-08-01T16:30:17;21.70;99.90
32334;DHT22;18810;53.040;8.850;2023-08-01T16:32:43;21.30;99.90
32334;DHT22;18810;53.040;8.850;2023-08-01T16:35:11;20.80;99.90
32334;DHT22;18810;53.040;8.850;2023-08-01T16:37:37;20.10;99.90
32334;DHT22;18810;53.040;8.850;2023-08-01T16:40:03;19.80;99.90
32334;DHT22;18810;53.040;8.850;2023-08-01T16:42:29;19.60;99.90
32334;DHT22;18810;53.040;8.850;2023-08-01T16:44:54;19.70;99.90
32334;DHT22;18810;53.040;8.850;2023-08-01T16:47:20;19.80;99.90
32334;DHT22;18810;53.040;8.850;2023-08-01T16:49:47;19.80;99.90
32334;DHT22;18810;53.040;8.850;2023-08-01T16:52:15;19.70;99.90
32334;DHT22;18810;53.040;8.850;2023-08-01T16:54:41;19.80;99.90
32334;DHT22;18810;53.040;8.850;2023-08-01T16:57:07;19.70;99.90
32334;DHT22;18810;53.040;8.850;2023-08-01T16:59:35;19.80;99.90
32334;DHT22;18810;53.040;8.850;2023-08-01T17:02:01;19.90;99.90
32334;DHT22;18810;53.040;8.850;2023-08-01T17:04:26;20.10;99.90